Calgary International Airport

Airport
ICAO code: 
CYYC
IATA Code: 
YYC
Summary
ICAO Region: 
NAM
Territory: 
Location: 
Calgary, Alberta
Serving: 
Calgary
Elevation: 
3557 ft
Coordinates: 
Aerial View: 
51° 7' 6.724" N, 114° 1' 14.487" W
Airport LOS: 
Parallel Runway Operation
Metar
Observation
CYYC 271154Z 14008KT 2 1/4SM BR OVC003 M03/M04 A3009 RMK FG3SC5 SLP234
Station
Calgary International, Alta.
Date/Time
2021-11-27 11:54:00
Wind direction
140°
Wind speed
08 kts
Lowest cloud amount
overcast
Temperature
-3°C
Dew point
-4°C
Humidity
92%
Weather condition
mist

Description

International airport serving Calgary, Alberta.

Climatology

Humid Continental climate (Köppen climate classification Dfb) - Variable weather patterns and a large seasonal temperature variance. Summers are often warm and humid with frequent thunderstorms and winters can be very cold with frequent snowfall and persistent snow cover.

Runways

Designator Length Width Surface Rops
7/25 1890 46 ASP Yes/Yes
10/28 2438 61 ASP Yes/Yes
16/34 3863 61 ASP Yes/Yes
Airport map: 
Aerial View: 

Accidents and Serious Incidents at or in the vicinity of CYYC

SKYbrary Partners:

Safety knowledge contributed by: